KSHV/SHV METAR and TAF weather

Enter ICAO airport designator
Station Type Date Time Source
KSHV METAR 2022/05/23 13:56 UTC NOAA

KSHV 231356Z 03007KT 5SM BR OVC005 18/16 A3013 RMK AO2 SLP200 T01780156


Station Type Date Time Source
KSHV Decoded METAR 2022/05/23 13:56 UTC NOAA

SHREVEPORT REGIONAL AIRPORT, LA, United States (KSHV) 32-27N 93-50W 80M
May 23, 2022 - 09:56 AM EDT / 2022.05.23 1356 UTC
Wind: from the NNE (030 degrees) at 8 MPH (7 KT):0
Visibility: 5 mile(s):0
Sky conditions: overcast
Weather: mist
Temperature: 64.0 F (17.8 C)
Dew Point: 60.1 F (15.6 C)
Relative Humidity: 86%
Pressure (altimeter): 30.13 in. Hg (1020 hPa)
ob: KSHV 231356Z 03007KT 5SM BR OVC005 18/16 A3013 RMK AO2 SLP200 T01780156
cycle: 14

Station Type Date Time Source
KSHV TAF 2022/05/23 12:42 UTC NOAA

TAF KSHV 231141Z 2312/2412 05008KT P6SM OVC010
FM231700 04007KT P6SM BKN025
FM231900 06008KT P6SM BKN035
FM240000 08007KT P6SM SCT045 BKN150
FM240600 09008KT P6SM BKN030
FM240900 10007KT P6SM BKN015

Example: see airport list